Randolph, Iowa
Current Conditions -  °F | °C
As of 8:55 PM on Wednesday 22 Oct 2014 (Local Time) from KSDA Reporting Station
Broken Clouds Broken Clouds  
Wind Chill: 64°   Ceiling: 10000
Heat Index: 64°   Visibility: 10mi
Dew Point: 52°   Wind: 17mph
Humidity: 64%   Direction: 150°SSE
Pressure: 30.05"   Gusts: 24mph
Location:  40.87°N, 95.57°W
Report Text: KSDA 230155Z AUTO 15015G21KT 10SM FEW070 FEW080 BKN100 18/11 A3005 RMK AO2
Loading
Personal Weather Stations






























Interactive Weather Map
Tropical Storm Tracking
New forecast layout! Learn more

10-Day Weather Forecast

Advertisements
Track Severe Weather on mobile